Time;durP1;ratioP1;P1;durP2;ratioP2;P2;SDS_P1;SDS_P2;PMS_P1;PMS_P2;Temp;Humidity;BMP_temperature;BMP_pressure;BME280_temperature;BME280_humidity;BME280_pressure;Samples;Min_cycle;Max_cycle;Signal;HPM_P1;HPM_P2
2021/10/28 00:15:31;;;;;;;12.50;8.83;;;;;;;7.88;100.00;99031.25;10422402;28;20925;-65
2021/10/28 00:20:36;;;;;;;12.10;9.38;;;;;;;7.84;100.00;99033.31;10440342;28;20047;-65
2021/10/28 00:25:40;;;;;;;12.10;8.60;;;;;;;7.83;100.00;99034.28;10420878;28;20056;-65
2021/10/28 00:30:43;;;;;;;10.45;8.60;;;;;;;7.79;100.00;99024.81;10415867;28;20098;-65
2021/10/28 00:35:48;;;;;;;12.15;9.60;;;;;;;7.69;100.00;99025.59;10424879;28;20086;-65
2021/10/28 00:40:52;;;;;;;13.25;9.30;;;;;;;7.64;100.00;99027.78;10434820;28;20111;-66
2021/10/28 00:45:56;;;;;;;13.20;10.40;;;;;;;7.60;100.00;99020.97;10423812;28;20735;-66
2021/10/28 00:51:00;;;;;;;14.95;10.00;;;;;;;7.58;100.00;99016.72;10434122;28;20032;-66
2021/10/28 00:56:05;;;;;;;14.48;11.60;;;;;;;7.52;100.00;99018.09;10433201;28;20033;-66
2021/10/28 01:01:09;;;;;;;12.93;10.88;;;;;;;7.48;100.00;99020.19;10422525;28;20041;-66
2021/10/28 01:06:15;;;;;;;15.18;13.20;;;;;;;7.43;100.00;99011.66;10435158;28;20503;-64
2021/10/28 01:11:17;;;;;;;11.65;9.88;;;;;;;7.39;100.00;99011.06;10440056;28;20059;-64
2021/10/28 01:16:21;;;;;;;14.07;11.30;;;;;;;7.34;100.00;99015.97;10439204;28;20114;-64
2021/10/28 01:21:26;;;;;;;16.38;13.02;;;;;;;7.30;100.00;99011.81;10431867;28;20068;-64
2021/10/28 01:26:29;;;;;;;19.85;13.60;;;;;;;7.27;100.00;99009.38;10432730;28;20057;-65
2021/10/28 01:31:36;;;;;;;14.32;11.98;;;;;;;7.25;100.00;99008.66;10437112;28;20166;-65
2021/10/28 01:36:40;;;;;;;16.83;12.70;;;;;;;7.20;100.00;99013.56;10433850;28;20033;-64
2021/10/28 01:41:43;;;;;;;14.65;11.93;;;;;;;7.16;100.00;99012.09;10434928;28;20045;-65
2021/10/28 01:46:46;;;;;;;17.23;13.07;;;;;;;7.15;100.00;99005.91;10434204;28;20044;-64
2021/10/28 01:51:53;;;;;;;15.52;11.50;;;;;;;7.11;100.00;98995.56;10417362;28;20143;-65
2021/10/28 01:56:57;;;;;;;21.55;13.85;;;;;;;7.09;100.00;99001.88;10415267;28;20045;-64
2021/10/28 02:02:00;;;;;;;19.95;14.90;;;;;;;7.06;100.00;98999.44;10434610;28;20041;-65
2021/10/28 02:07:05;;;;;;;17.52;13.88;;;;;;;7.00;100.00;98989.22;10433847;28;20487;-65
2021/10/28 02:12:09;;;;;;;19.38;13.30;;;;;;;6.93;100.00;98979.97;10442239;28;20561;-66
2021/10/28 02:17:12;;;;;;;19.48;13.93;;;;;;;6.88;100.00;98977.69;10445349;28;20588;-64
2021/10/28 02:22:17;;;;;;;20.30;15.13;;;;;;;6.83;100.00;98979.03;10435223;28;20095;-65
2021/10/28 02:27:20;;;;;;;21.05;14.75;;;;;;;6.78;100.00;98982.91;10421456;28;20053;-65
2021/10/28 02:32:24;;;;;;;22.63;15.60;;;;;;;6.76;100.00;98984.03;10429367;28;20049;-66
2021/10/28 02:37:29;;;;;;;29.02;17.77;;;;;;;6.73;100.00;98985.13;10409184;28;20045;-65
2021/10/28 02:42:32;;;;;;;23.65;16.42;;;;;;;6.75;100.00;98982.31;10424719;28;20064;-65
2021/10/28 02:47:35;;;;;;;22.08;15.52;;;;;;;6.75;100.00;98985.84;10435921;28;20040;-65
2021/10/28 02:52:40;;;;;;;24.77;17.20;;;;;;;6.74;100.00;98994.00;10432515;28;20045;-66
2021/10/28 02:57:43;;;;;;;26.42;17.38;;;;;;;6.74;100.00;98997.53;10426485;28;20094;-65
2021/10/28 03:02:47;;;;;;;23.80;16.30;;;;;;;6.70;100.00;98985.38;10435502;28;20776;-65
2021/10/28 03:07:53;;;;;;;21.80;14.88;;;;;;;6.61;100.00;98991.47;10428692;28;20041;-65
2021/10/28 03:12:56;;;;;;;25.60;16.25;;;;;;;6.56;100.00;98988.28;10409052;28;20049;-65
2021/10/28 03:18:19;;;;;;;21.27;16.42;;;;;;;6.50;100.00;98978.91;10429423;28;20061;-64
2021/10/28 03:28:43;;;;;;;27.67;18.58;;;;;;;6.37;100.00;98978.16;10428553;28;20051;-64
2021/10/28 03:33:48;;;;;;;37.22;21.30;;;;;;;6.27;100.00;98970.03;10428993;28;20053;-64
2021/10/28 03:39:04;;;;;;;47.95;27.73;;;;;;;6.27;100.00;98959.34;10436629;28;20056;-63
2021/10/28 03:49:58;;;;;;;38.38;21.17;;;;;;;6.28;100.00;98971.75;10426875;28;20060;-64
2021/10/28 04:32:29;;;;;;;40.88;21.85;;;;;;;6.23;100.00;98957.84;10412201;28;20084;-65
2021/10/28 04:37:32;;;;;;;33.08;21.17;;;;;;;6.20;100.00;98955.41;10434646;28;20040;-64
2021/10/28 04:42:36;;;;;;;33.28;20.55;;;;;;;6.15;100.00;98958.44;10416832;28;20067;-64
2021/10/28 04:47:39;;;;;;;36.50;22.27;;;;;;;6.09;100.00;98950.94;10426289;28;20498;-64
2021/10/28 04:52:42;;;;;;;43.70;24.10;;;;;;;6.03;100.00;98944.22;10430959;28;20041;-64
2021/10/28 04:57:47;;;;;;;51.88;27.10;;;;;;;6.01;100.00;98936.31;10429052;28;20039;-64
2021/10/28 05:02:50;;;;;;;35.75;21.33;;;;;;;5.96;100.00;98934.94;10429674;28;20043;-64
2021/10/28 05:07:53;;;;;;;48.00;26.42;;;;;;;5.90;100.00;98928.22;10431758;28;20041;-64
2021/10/28 05:12:57;;;;;;;34.13;22.75;;;;;;;5.88;100.00;98930.16;10432487;28;20085;-64
2021/10/28 05:18:00;;;;;;;37.53;23.58;;;;;;;5.82;100.00;98930.66;10430748;28;20029;-64
2021/10/28 05:23:03;;;;;;;35.38;21.10;;;;;;;5.75;100.00;98922.25;10432722;28;20048;-63
2021/10/28 05:28:08;;;;;;;28.70;18.23;;;;;;;5.61;100.00;98923.31;10437510;28;20043;-64
2021/10/28 05:33:11;;;;;;;31.70;19.83;;;;;;;5.56;100.00;98922.81;10429337;28;20045;-64
2021/10/28 05:38:14;;;;;;;59.00;28.63;;;;;;;5.49;100.00;98922.41;10409436;28;20049;-64
2021/10/28 05:43:19;;;;;;;124.90;40.33;;;;;;;5.54;100.00;98927.41;10409848;28;20622;-64
2021/10/28 05:48:22;;;;;;;85.13;33.83;;;;;;;5.53;100.00;98933.72;10421285;28;20034;-64
2021/10/28 05:53:25;;;;;;;86.18;34.78;;;;;;;5.49;100.00;98930.44;10401933;28;20045;-64
2021/10/28 05:58:29;;;;;;;102.00;36.35;;;;;;;5.40;100.00;98933.81;10438332;28;20072;-68
2021/10/28 06:03:35;;;;;;;111.20;38.15;;;;;;;5.40;100.00;98936.50;10436433;28;20132;-64
2021/10/28 06:08:39;;;;;;;75.40;31.50;;;;;;;5.31;100.00;98943.38;10418768;28;20086;-64
2021/10/28 06:13:45;;;;;;;69.95;28.60;;;;;;;5.23;100.00;98935.91;10423174;28;20048;-64
2021/10/28 06:18:50;;;;;;;72.72;30.08;;;;;;;5.10;100.00;98932.47;10422401;28;21083;-64
2021/10/28 06:23:53;;;;;;;60.05;27.30;;;;;;;5.03;100.00;98936.56;10409246;28;20068;-63
2021/10/28 06:28:58;;;;;;;91.50;36.58;;;;;;;5.14;100.00;98938.44;10430344;28;20351;-63
2021/10/28 06:34:02;;;;;;;73.60;31.95;;;;;;;5.14;100.00;98952.63;10428854;28;20045;-65
2021/10/28 06:39:05;;;;;;;70.75;34.30;;;;;;;5.15;100.00;98948.16;10429119;28;20040;-64
2021/10/28 06:44:10;;;;;;;69.22;31.67;;;;;;;5.16;100.00;98944.53;10407686;28;20056;-64
2021/10/28 06:49:15;;;;;;;62.45;30.10;;;;;;;5.17;100.00;98948.91;10430220;28;20044;-64
2021/10/28 06:54:24;;;;;;;81.30;35.22;;;;;;;5.25;100.00;98944.69;10428918;28;20388;-64
2021/10/28 07:04:50;;;;;;;66.80;32.97;;;;;;;5.39;100.00;98948.13;10427366;28;20055;-64
2021/10/28 07:10:00;;;;;;;61.75;30.40;;;;;;;5.45;100.00;98945.03;10434372;28;20494;-63
2021/10/28 07:15:11;;;;;;;;;;;;;;;5.53;100.00;98937.25;10428303;28;20045;-64
2021/10/28 07:20:26;;;;;;;41.40;25.35;;;;;;;5.55;100.00;98935.34;10411048;28;20279;-63
2021/10/28 07:25:50;;;;;;;49.50;27.25;;;;;;;5.63;100.00;98944.56;10423649;28;20055;-64
2021/10/28 07:58:32;;;;;;;35.37;22.10;;;;;;;6.29;100.00;98906.56;10604750;27;20365;-69
2021/10/28 08:14:27;;;;;;;31.02;21.17;;;;;;;6.66;100.00;98903.56;10602837;27;20043;-66
2021/10/28 08:19:39;;;;;;;23.70;17.00;;;;;;;6.80;100.00;98902.47;10603244;27;20048;-69
2021/10/28 08:30:10;;;;;;;25.27;17.83;;;;;;;7.19;100.00;98891.25;10568637;27;20063;-69
2021/10/28 08:35:15;;;;;;;21.63;14.63;;;;;;;7.38;100.00;98878.00;10548045;28;20039;-68
2021/10/28 08:40:19;;;;;;;19.60;12.50;;;;;;;7.61;100.00;98866.31;10545112;28;20482;-68
2021/10/28 08:45:24;;;;;;;16.05;10.48;;;;;;;7.82;100.00;98855.56;10547638;28;20123;-68
2021/10/28 08:50:32;;;;;;;17.70;11.65;;;;;;;8.04;100.00;98851.00;10532859;28;20043;-69
2021/10/28 08:55:39;;;;;;;19.27;11.45;;;;;;;8.30;100.00;98838.81;10518671;28;20062;-69
2021/10/28 09:28:00;;;;;;;18.63;10.32;;;;;;;9.65;100.00;98785.38;10514495;28;20462;-66
2021/10/28 09:33:08;;;;;;;15.93;10.13;;;;;;;9.87;100.00;98782.34;10517580;28;20136;-69
2021/10/28 09:43:48;;;;;;;15.23;11.15;;;;;;;10.24;100.00;98793.22;10513524;28;20083;-66
2021/10/28 09:54:47;;;;;;;15.50;9.90;;;;;;;10.54;100.00;98775.03;10514737;28;20523;-69
2021/10/28 10:00:04;;;;;;;16.63;9.98;;;;;;;10.72;100.00;98769.66;10514992;28;20052;-68
2021/10/28 10:05:18;;;;;;;25.10;9.40;;;;;;;10.97;100.00;98770.75;10516976;28;20052;-67
2021/10/28 10:10:24;;;;;;;15.55;7.30;;;;;;;11.27;100.00;98752.44;10512149;28;20123;-68
2021/10/28 10:15:27;;;;;;;10.40;6.80;;;;;;;11.66;100.00;98746.63;10514202;28;20051;-63
2021/10/28 10:20:40;;;;;;;12.68;6.65;;;;;;;11.98;100.00;98745.13;10520696;28;20555;-67
2021/10/28 10:25:54;;;;;;;11.10;5.95;;;;;;;12.21;100.00;98732.88;10512193;28;20048;-66
2021/10/28 12:53:03;;;;;;;4.35;2.20;;;;;;;16.86;77.59;98551.97;10516060;28;20661;-64
2021/10/28 13:03:50;;;;;;;5.50;2.90;;;;;;;17.15;80.69;98547.34;10515664;28;20816;-65
2021/10/28 13:52:07;;;;;;;5.45;2.10;;;;;;;18.64;56.50;98494.84;10512285;28;20047;-64
2021/10/28 14:24:36;;;;;;;2.97;1.70;;;;;;;18.98;57.73;98481.19;10511988;28;20047;-64
2021/10/28 15:28:49;;;;;;;3.92;2.45;;;;;;;16.94;85.33;98429.38;10494572;28;20051;-67
2021/10/28 15:39:17;;;;;;;5.30;2.95;;;;;;;16.33;92.29;98430.06;10507121;28;20063;-67
2021/10/28 16:00:41;;;;;;;5.80;3.25;;;;;;;14.89;100.00;98429.00;10514234;28;20123;-66
2021/10/28 16:21:53;;;;;;;6.70;4.43;;;;;;;13.65;100.00;98419.41;10514739;28;20043;-64
2021/10/28 16:26:57;;;;;;;9.93;4.82;;;;;;;13.45;100.00;98422.59;10517454;28;20056;-65
2021/10/28 16:32:01;;;;;;;7.28;4.53;;;;;;;13.11;100.00;98426.50;10518186;28;20044;-66
2021/10/28 16:37:04;;;;;;;9.02;5.53;;;;;;;12.90;100.00;98427.94;10518854;28;20316;-67
2021/10/28 16:42:08;;;;;;;10.30;6.20;;;;;;;12.72;100.00;98433.59;10513523;28;20052;-66
2021/10/28 16:47:14;;;;;;;7.90;6.40;;;;;;;12.59;100.00;98431.44;10518332;28;20054;-66
2021/10/28 16:52:17;;;;;;;11.30;6.85;;;;;;;12.45;100.00;98438.41;10514376;28;20461;-67
2021/10/28 16:57:20;;;;;;;10.77;6.90;;;;;;;12.37;100.00;98435.72;10517851;28;20130;-67
2021/10/28 17:02:25;;;;;;;10.88;7.53;;;;;;;12.20;100.00;98431.38;10520835;28;20101;-64
2021/10/28 17:07:29;;;;;;;13.18;7.82;;;;;;;12.04;100.00;98440.34;10517821;28;20056;-64
2021/10/28 17:12:32;;;;;;;13.75;7.32;;;;;;;11.96;100.00;98433.06;10516799;28;20537;-66
2021/10/28 17:17:36;;;;;;;10.43;7.05;;;;;;;11.82;100.00;98448.06;10515642;28;20131;-67
2021/10/28 17:22:39;;;;;;;10.05;6.85;;;;;;;11.72;100.00;98443.69;10518118;28;20050;-66
2021/10/28 17:27:44;;;;;;;10.93;7.15;;;;;;;11.62;100.00;98452.97;10517650;28;20058;-65
2021/10/28 17:32:49;;;;;;;10.02;6.78;;;;;;;11.50;100.00;98449.75;10517871;28;20477;-65
2021/10/28 17:37:52;;;;;;;11.32;6.95;;;;;;;11.39;100.00;98440.13;10517122;28;21497;-69
2021/10/28 17:42:56;;;;;;;11.65;7.13;;;;;;;11.32;100.00;98445.34;10517850;28;20032;-66
2021/10/28 17:48:01;;;;;;;10.30;5.70;;;;;;;11.14;100.00;98456.25;10514836;28;20040;-67
2021/10/28 17:53:05;;;;;;;11.20;5.68;;;;;;;10.97;100.00;98452.66;10514025;28;20064;-67
2021/10/28 17:58:12;;;;;;;9.38;5.25;;;;;;;10.82;100.00;98452.41;10517114;28;20574;-70
2021/10/28 18:03:20;;;;;;;11.15;6.10;;;;;;;10.66;100.00;98452.34;10515812;28;20060;-65
2021/10/28 18:08:24;;;;;;;10.93;6.22;;;;;;;10.44;100.00;98460.81;10537071;27;20040;-67
2021/10/28 18:13:27;;;;;;;10.57;5.55;;;;;;;10.27;100.00;98456.31;10513342;28;20129;-67
2021/10/28 18:18:32;;;;;;;7.50;5.10;;;;;;;10.10;100.00;98458.06;10511043;28;20036;-67
2021/10/28 18:23:43;;;;;;;9.25;6.18;;;;;;;9.95;100.00;98453.25;10508742;28;20036;-67
2021/10/28 18:28:48;;;;;;;9.10;6.00;;;;;;;9.79;100.00;98462.03;10511219;28;20070;-70
2021/10/28 18:33:52;;;;;;;11.32;7.78;;;;;;;9.43;100.00;98462.03;10512141;28;20044;-66
2021/10/28 18:38:56;;;;;;;14.75;9.98;;;;;;;9.12;100.00;98459.69;10513485;28;20177;-64
2021/10/28 18:43:59;;;;;;;14.82;10.75;;;;;;;8.97;100.00;98470.09;10513332;28;20603;-66
2021/10/28 18:49:05;;;;;;;15.52;10.77;;;;;;;8.78;100.00;98471.03;10512293;28;20055;-64
2021/10/28 18:54:10;;;;;;;15.32;11.38;;;;;;;8.67;100.00;98465.88;10509092;28;20060;-64
2021/10/28 18:59:14;;;;;;;17.42;11.30;;;;;;;8.51;100.00;98462.00;10514049;28;20493;-63
2021/10/28 19:04:19;;;;;;;18.83;12.35;;;;;;;8.33;100.00;98454.66;10508886;28;20036;-64
2021/10/28 19:09:22;;;;;;;19.67;13.93;;;;;;;8.21;100.00;98457.69;10511765;28;20054;-66
2021/10/28 19:14:25;;;;;;;19.83;15.45;;;;;;;8.09;100.00;98454.28;10513504;28;20122;-65
2021/10/28 19:19:30;;;;;;;20.75;15.73;;;;;;;7.92;100.00;98455.88;10512331;28;20490;-64
2021/10/28 19:24:34;;;;;;;23.33;16.25;;;;;;;7.78;100.00;98438.41;10511780;28;20051;-64
2021/10/28 19:29:43;;;;;;;24.15;16.75;;;;;;;7.70;100.00;98447.16;10508872;28;20058;-63
2021/10/28 19:34:47;;;;;;;24.85;18.42;;;;;;;7.55;100.00;98447.59;10508032;28;20035;-64
2021/10/28 19:45:23;;;;;;;24.48;18.92;;;;;;;7.39;100.00;98461.56;10508376;28;20883;-65
2021/10/28 19:50:28;;;;;;;27.98;20.95;;;;;;;7.29;100.00;98449.97;10511623;28;20061;-69
2021/10/28 19:55:32;;;;;;;30.27;22.05;;;;;;;7.24;100.00;98447.72;10511230;28;20150;-68
2021/10/28 20:00:38;;;;;;;29.63;22.08;;;;;;;7.25;100.00;98443.19;10511096;28;20086;-67
2021/10/28 20:05:49;;;;;;;27.85;19.98;;;;;;;7.25;100.00;98429.78;10506353;28;20470;-70
2021/10/28 20:21:36;;;;;;;24.75;19.30;;;;;;;7.14;100.00;98401.31;10509831;28;20040;-71
2021/10/28 20:26:39;;;;;;;26.65;20.00;;;;;;;7.11;100.00;98404.28;10510489;28;20052;-68
2021/10/28 20:31:43;;;;;;;28.45;19.65;;;;;;;7.07;100.00;98416.25;10510328;28;20052;-71
2021/10/28 20:37:06;;;;;;;25.65;18.63;;;;;;;7.05;100.00;98402.16;10506590;28;20036;-70
2021/10/28 20:42:12;;;;;;;26.00;18.98;;;;;;;6.98;100.00;98403.69;10530787;27;20410;-72
2021/10/28 20:47:16;;;;;;;26.88;19.27;;;;;;;6.96;100.00;98419.03;10512877;28;20041;-71
2021/10/28 20:52:21;;;;;;;27.17;19.95;;;;;;;6.88;100.00;98414.41;10513039;28;20512;-69
2021/10/28 20:57:24;;;;;;;27.70;20.27;;;;;;;6.79;100.00;98410.72;10515488;28;20615;-70
2021/10/28 21:02:27;;;;;;;27.05;20.05;;;;;;;6.75;100.00;98403.94;10516557;28;20108;-67
2021/10/28 21:07:31;;;;;;;26.92;19.42;;;;;;;6.68;100.00;98414.34;10513681;28;20043;-68
2021/10/28 21:12:35;;;;;;;27.52;20.63;;;;;;;6.68;100.00;98408.16;10512714;28;20044;-67
2021/10/28 21:17:38;;;;;;;30.75;21.75;;;;;;;6.64;100.00;98412.94;10512678;28;20044;-67
2021/10/28 21:22:43;;;;;;;29.13;21.60;;;;;;;6.54;100.00;98412.91;10514890;28;20097;-68
2021/10/28 21:27:47;;;;;;;28.52;20.80;;;;;;;6.45;100.00;98416.38;10515088;28;20047;-64
2021/10/28 21:33:10;;;;;;;34.53;22.20;;;;;;;6.41;100.00;98413.13;10514013;28;20048;-64
2021/10/28 21:45:14;;;;;;;34.05;23.95;;;;;;;6.29;100.00;98416.91;10514739;28;20514;-66
2021/10/28 21:50:48;;;;;;;27.30;21.40;;;;;;;6.29;100.00;98414.22;10510146;28;20052;-64
2021/10/28 21:56:04;;;;;;;33.67;23.33;;;;;;;6.20;100.00;98410.50;10513826;28;20052;-65
2021/10/28 22:01:16;;;;;;;40.17;26.73;;;;;;;6.19;100.00;98410.63;10514651;28;20044;-65
2021/10/28 22:28:07;;;;;;;35.40;26.35;;;;;;;6.24;100.00;98400.38;10512055;28;20043;-65
2021/10/28 22:33:11;;;;;;;38.17;26.00;;;;;;;6.25;100.00;98386.84;10513510;28;20040;-65
2021/10/28 22:38:14;;;;;;;40.50;26.65;;;;;;;6.23;100.00;98385.31;10511505;28;20048;-65
2021/10/28 22:43:20;;;;;;;39.35;27.98;;;;;;;6.17;100.00;98389.38;10512363;28;20036;-65
2021/10/28 22:48:24;;;;;;;39.30;26.98;;;;;;;6.15;100.00;98380.63;10512442;28;20124;-65
2021/10/28 22:53:30;;;;;;;37.55;27.13;;;;;;;6.13;100.00;98378.09;10512912;28;20040;-64
2021/10/28 22:58:35;;;;;;;44.58;29.02;;;;;;;6.09;100.00;98375.84;10510836;28;20066;-65
2021/10/28 23:14:46;;;;;;;43.28;29.73;;;;;;;6.04;100.00;98356.66;10514214;28;20046;-65
2021/10/28 23:25:11;;;;;;;44.67;30.17;;;;;;;6.02;100.00;98354.13;10511191;28;20044;-63
2021/10/28 23:30:15;;;;;;;43.20;29.27;;;;;;;5.95;100.00;98347.56;10511873;28;20048;-64
2021/10/28 23:35:20;;;;;;;46.38;31.15;;;;;;;5.86;100.00;98351.91;10516299;28;20492;-64
2021/10/28 23:40:24;;;;;;;46.47;30.85;;;;;;;5.81;100.00;98341.63;10513105;28;20051;-64
2021/10/28 23:45:27;;;;;;;50.58;33.67;;;;;;;5.81;100.00;98340.75;10514783;28;20109;-64
2021/10/28 23:50:32;;;;;;;46.22;32.15;;;;;;;5.78;100.00;98339.19;10509616;28;20055;-65
2021/10/28 23:55:35;;;;;;;47.00;31.60;;;;;;;5.74;100.00;98329.75;10514150;28;20060;-64
